Alto, Texas
Current Conditions -  °F | °C
As of 3:15 AM on Thursday 18 Dec 2014 (Local Time) from KJSO Reporting Station
Moderate Fog Moderate Fog  
Wind Chill: 43°   Ceiling: 100
Heat Index: 46°   Visibility: 0.25mi
Dew Point: 46°   Wind: 5mph
Humidity: 99%   Direction: 30°NNE
Pressure: 30.14"   Gusts: NA
Location:  31.65°N, 95.07°W
Report Text: KJSO 180915Z AUTO 03004KT 1/4SM FG OVC001 07/07 A3014 RMK AO2 T00760075
Loading
Personal Weather Stations






























Interactive Weather Map New forecast layout! Learn more

10-Day Weather Forecast

Advertisements
Track Severe Weather on mobile